createdAt,value
2023-03-17T00:01:54.734Z,2.22
2023-03-17T00:04:33.804Z,2.40
2023-03-17T00:07:02.454Z,2.30
2023-03-17T00:09:29.250Z,2.50
2023-03-17T00:12:03.922Z,2.40
2023-03-17T00:14:31.138Z,2.10
2023-03-17T00:16:57.662Z,2.30
2023-03-17T00:19:35.237Z,2.40
2023-03-17T00:22:03.206Z,2.10
2023-03-17T00:24:30.185Z,2.17
2023-03-17T00:27:03.283Z,1.95
2023-03-17T00:29:29.774Z,2.00
2023-03-17T00:31:57.663Z,2.55
2023-03-17T00:34:24.389Z,2.53
2023-03-17T00:36:51.709Z,2.85
2023-03-17T00:39:18.903Z,2.78
2023-03-17T00:44:14.560Z,2.83
2023-03-17T00:46:41.720Z,2.53
2023-03-17T00:49:21.582Z,2.33
2023-03-17T00:51:48.809Z,2.20
2023-03-17T00:54:16.891Z,2.47
2023-03-17T00:56:48.349Z,2.88
2023-03-17T00:59:26.614Z,2.50
2023-03-17T01:01:55.667Z,2.58
2023-03-17T01:04:23.989Z,2.75
2023-03-17T01:06:52.300Z,2.60
2023-03-17T01:09:24.335Z,2.45
2023-03-17T01:11:50.821Z,2.53
2023-03-17T01:14:17.842Z,3.15
2023-03-17T01:16:46.541Z,2.78
2023-03-17T01:19:13.761Z,2.55
2023-03-17T01:21:41.653Z,2.40
2023-03-17T01:24:14.779Z,2.75
2023-03-17T01:26:41.597Z,2.55
2023-03-17T01:29:10.443Z,3.30
2023-03-17T01:31:37.741Z,2.65
2023-03-17T01:34:04.391Z,2.80
2023-03-17T01:36:30.886Z,2.60
2023-03-17T01:38:57.652Z,2.63
2023-03-17T01:41:27.560Z,2.92
2023-03-17T01:43:54.193Z,2.50
2023-03-17T01:46:35.836Z,2.35
2023-03-17T01:49:25.013Z,2.70
2023-03-17T01:52:16.547Z,2.60
2023-03-17T01:54:50.612Z,2.28
2023-03-17T01:57:25.272Z,2.58
2023-03-17T02:00:02.003Z,2.58
2023-03-17T02:02:40.965Z,2.50
2023-03-17T02:05:10.944Z,2.80
2023-03-17T02:07:38.546Z,2.42
2023-03-17T02:10:08.255Z,2.60
2023-03-17T02:12:35.646Z,2.42
2023-03-17T02:15:05.384Z,2.60
2023-03-17T02:17:32.341Z,2.55
2023-03-17T02:20:19.940Z,2.67
2023-03-17T02:22:54.985Z,2.22
2023-03-17T02:25:24.859Z,2.38
2023-03-17T02:27:58.357Z,1.90
2023-03-17T02:30:29.659Z,2.05
2023-03-17T02:32:56.336Z,2.03
2023-03-17T02:35:23.534Z,2.50
2023-03-17T02:37:50.514Z,2.90
2023-03-17T02:40:17.482Z,2.42
2023-03-17T02:42:51.108Z,2.70
2023-03-17T02:45:18.078Z,2.33
2023-03-17T02:47:44.595Z,2.70
2023-03-17T02:50:20.339Z,2.92
2023-03-17T02:57:40.064Z,2.55
2023-03-17T03:00:10.413Z,3.05
2023-03-17T03:02:38.148Z,2.72
2023-03-17T03:05:08.362Z,2.70
2023-03-17T03:07:36.858Z,3.00
2023-03-17T03:10:04.255Z,3.10
2023-03-17T03:12:32.643Z,2.88
2023-03-17T03:14:59.573Z,2.67
2023-03-17T03:17:26.396Z,2.65
2023-03-17T03:20:03.963Z,2.80
2023-03-17T03:22:37.341Z,2.67
2023-03-17T03:25:04.302Z,2.80
2023-03-17T03:27:34.290Z,2.95
2023-03-17T03:30:01.245Z,2.47
2023-03-17T03:32:27.844Z,2.60
2023-03-17T03:34:54.540Z,3.05
2023-03-17T03:37:27.231Z,2.90
2023-03-17T03:39:58.201Z,2.63
2023-03-17T03:42:24.722Z,2.60
2023-03-17T03:44:51.437Z,3.10
2023-03-17T03:47:18.052Z,2.65
2023-03-17T03:49:46.988Z,2.60
2023-03-17T03:52:13.453Z,2.55
2023-03-17T03:54:41.749Z,2.85
2023-03-17T03:57:08.343Z,3.60
2023-03-17T03:59:34.842Z,2.92
2023-03-17T04:02:09.604Z,2.80
2023-03-17T04:04:36.344Z,2.87
2023-03-17T04:07:03.173Z,2.60
2023-03-17T04:09:31.534Z,3.15
2023-03-17T04:11:58.000Z,2.55
2023-03-17T04:14:24.516Z,2.90
2023-03-17T04:16:51.268Z,3.25
2023-03-17T04:19:22.220Z,3.90
2023-03-17T04:21:48.787Z,3.00
2023-03-17T04:24:15.440Z,3.08
2023-03-17T04:26:42.271Z,3.03
2023-03-17T04:29:10.705Z,2.97
2023-03-17T04:31:39.571Z,3.38
2023-03-17T04:34:06.244Z,3.60
2023-03-17T04:36:33.061Z,3.35
2023-03-17T04:38:59.756Z,3.22
2023-03-17T04:41:26.259Z,3.03
2023-03-17T04:43:52.979Z,3.05
2023-03-17T04:46:19.840Z,2.95
2023-03-17T04:48:49.725Z,3.28
2023-03-17T04:51:17.138Z,3.10
2023-03-17T04:53:45.044Z,3.20
2023-03-17T04:56:12.075Z,3.50
2023-03-17T04:58:42.390Z,3.13
2023-03-17T05:01:10.772Z,2.85
2023-03-17T05:03:37.359Z,3.90
2023-03-17T05:06:05.068Z,3.60
2023-03-17T05:08:32.062Z,3.70
2023-03-17T05:11:03.384Z,3.80
2023-03-17T05:13:30.050Z,3.65
2023-03-17T05:15:57.296Z,3.63
2023-03-17T05:18:25.510Z,3.50
2023-03-17T05:20:52.112Z,3.42
2023-03-17T05:23:26.611Z,4.15
2023-03-17T05:25:53.738Z,4.00
2023-03-17T05:28:21.028Z,3.83
2023-03-17T05:30:57.051Z,4.03
2023-03-17T05:33:24.809Z,4.18
2023-03-17T05:36:06.061Z,3.78
2023-03-17T05:38:32.573Z,3.58
2023-03-17T05:40:59.164Z,4.30
2023-03-17T05:43:27.788Z,4.30
2023-03-17T05:45:54.722Z,3.88
2023-03-17T05:48:23.126Z,3.83
2023-03-17T05:50:50.037Z,4.20
2023-03-17T05:53:17.607Z,4.38
2023-03-17T05:55:44.619Z,4.35
2023-03-17T05:58:13.441Z,4.38
2023-03-17T06:00:42.120Z,3.88
2023-03-17T06:03:08.860Z,4.38
2023-03-17T06:05:35.779Z,4.85
2023-03-17T06:08:05.762Z,4.97
2023-03-17T06:10:33.195Z,4.68
2023-03-17T06:13:03.276Z,4.53
2023-03-17T06:15:30.926Z,4.70
2023-03-17T06:17:57.726Z,4.53
2023-03-17T06:20:34.463Z,4.70
2023-03-17T06:23:05.848Z,4.25
2023-03-17T06:25:34.339Z,4.40
2023-03-17T06:28:02.842Z,4.15
2023-03-17T06:30:30.700Z,4.75
2023-03-17T06:32:57.280Z,4.65
2023-03-17T06:35:26.484Z,4.70
2023-03-17T06:37:53.093Z,5.00
2023-03-17T06:40:19.697Z,4.47
2023-03-17T06:42:46.573Z,5.13
2023-03-17T06:45:13.196Z,4.95
2023-03-17T06:47:42.083Z,4.22
2023-03-17T06:50:09.985Z,4.53
2023-03-17T06:52:37.733Z,4.38
2023-03-17T06:55:08.580Z,4.25
2023-03-17T06:57:38.630Z,4.10
2023-03-17T07:00:06.939Z,4.00
2023-03-17T07:02:34.171Z,5.85
2023-03-17T07:05:03.161Z,6.03
2023-03-17T07:07:29.890Z,5.85
2023-03-17T07:09:56.356Z,6.20
2023-03-17T07:12:27.435Z,4.90
2023-03-17T07:14:54.196Z,5.07
2023-03-17T07:17:20.800Z,4.93
2023-03-17T07:19:47.450Z,4.38
2023-03-17T07:22:13.973Z,4.70
2023-03-17T07:24:43.218Z,4.40
2023-03-17T07:27:12.111Z,3.65
2023-03-17T07:29:39.171Z,4.13
2023-03-17T07:32:08.192Z,4.10
2023-03-17T07:34:35.947Z,4.20
2023-03-17T07:37:03.022Z,4.10
2023-03-17T07:39:29.649Z,4.25
2023-03-17T07:41:56.366Z,4.05
2023-03-17T07:44:24.179Z,3.38
2023-03-17T07:46:51.596Z,4.03
2023-03-17T07:49:38.061Z,3.90
2023-03-17T07:52:08.456Z,4.00
2023-03-17T07:54:43.365Z,4.43
2023-03-17T07:57:10.892Z,3.93
2023-03-17T07:59:38.322Z,3.88
2023-03-17T08:02:11.157Z,4.25
2023-03-17T08:04:37.672Z,3.72
2023-03-17T08:07:06.346Z,4.53
2023-03-17T08:09:33.688Z,3.88
2023-03-17T08:12:00.179Z,4.18
2023-03-17T08:14:26.641Z,4.72
2023-03-17T08:16:54.332Z,3.65
2023-03-17T08:19:28.535Z,3.22
2023-03-17T08:21:54.998Z,3.42
2023-03-17T08:24:21.773Z,3.50
2023-03-17T08:26:49.465Z,3.67
2023-03-17T08:29:18.598Z,3.25
2023-03-17T08:31:47.419Z,3.65
2023-03-17T08:34:14.154Z,4.22
2023-03-17T08:36:40.983Z,4.30
2023-03-17T08:39:09.448Z,3.45
2023-03-17T08:41:36.944Z,3.72
2023-03-17T08:44:03.887Z,3.67
2023-03-17T08:46:33.814Z,4.03
2023-03-17T08:49:00.960Z,4.18
2023-03-17T08:51:32.016Z,3.90
2023-03-17T08:54:01.464Z,3.20
2023-03-17T08:56:28.453Z,3.35
2023-03-17T08:58:55.227Z,4.00
2023-03-17T09:01:28.876Z,3.58
2023-03-17T09:03:56.038Z,3.30
2023-03-17T09:06:23.273Z,3.80
2023-03-17T09:08:57.337Z,3.75
2023-03-17T09:11:27.649Z,3.30
2023-03-17T09:13:55.520Z,3.30
2023-03-17T09:16:24.231Z,3.67
2023-03-17T09:18:51.337Z,3.75
2023-03-17T09:21:18.143Z,4.00
2023-03-17T09:23:44.777Z,4.25
2023-03-17T09:26:12.609Z,3.22
2023-03-17T09:28:42.871Z,4.00
2023-03-17T09:31:11.902Z,3.40
2023-03-17T09:33:40.669Z,3.42
2023-03-17T09:36:08.607Z,3.80
2023-03-17T09:38:45.282Z,3.08
2023-03-17T09:41:16.196Z,3.58
2023-03-17T09:44:01.344Z,3.75
2023-03-17T09:46:55.010Z,3.35
2023-03-17T09:49:27.598Z,3.92
2023-03-17T09:51:54.246Z,4.15
2023-03-17T09:54:35.227Z,3.90
2023-03-17T09:57:16.765Z,4.07
2023-03-17T09:59:47.581Z,4.03
2023-03-17T10:02:17.972Z,4.45
2023-03-17T10:04:46.260Z,3.42
2023-03-17T10:07:19.450Z,4.82
2023-03-17T10:10:01.321Z,4.57
2023-03-17T10:12:45.798Z,3.90
2023-03-17T10:15:25.500Z,4.13
2023-03-17T10:17:53.462Z,3.38
2023-03-17T10:20:30.458Z,4.32
2023-03-17T10:23:02.227Z,3.85
2023-03-17T10:25:33.013Z,3.28
2023-03-17T10:28:09.553Z,3.67
2023-03-17T10:30:36.385Z,4.05
2023-03-17T10:33:07.225Z,3.63
2023-03-17T10:35:36.695Z,3.63
2023-03-17T10:38:16.285Z,4.13
2023-03-17T10:40:47.867Z,4.30
2023-03-17T10:43:20.658Z,4.20
2023-03-17T10:46:17.132Z,4.25
2023-03-17T10:48:51.242Z,4.10
2023-03-17T10:51:33.620Z,4.30
2023-03-17T10:54:17.583Z,3.80
2023-03-17T10:56:48.942Z,4.05
2023-03-17T10:59:19.947Z,4.93
2023-03-17T11:02:16.373Z,4.60
2023-03-17T11:04:43.384Z,3.83
2023-03-17T11:07:16.328Z,3.50
2023-03-17T11:09:50.070Z,3.72
2023-03-17T11:12:36.577Z,3.53
2023-03-17T11:15:07.397Z,3.33
2023-03-17T11:17:58.139Z,3.40
2023-03-17T11:20:33.154Z,3.20
2023-03-17T11:23:24.123Z,3.63
2023-03-17T11:26:19.176Z,3.88
2023-03-17T11:28:57.325Z,3.55
2023-03-17T11:31:33.373Z,4.32
2023-03-17T11:34:08.969Z,4.47
2023-03-17T11:37:13.617Z,4.68
2023-03-17T11:40:02.921Z,4.28
2023-03-17T11:43:17.775Z,3.90
2023-03-17T11:45:52.536Z,4.35
2023-03-17T11:48:51.206Z,4.10
2023-03-17T11:51:38.056Z,4.05
2023-03-17T11:54:15.076Z,3.75
2023-03-17T11:57:03.494Z,3.90
2023-03-17T11:59:42.532Z,4.10
2023-03-17T12:02:36.962Z,3.40
2023-03-17T12:05:06.522Z,3.92
2023-03-17T12:07:53.342Z,3.60
2023-03-17T12:10:36.602Z,3.20
2023-03-17T12:13:15.486Z,3.40
2023-03-17T12:15:47.659Z,3.38
2023-03-17T12:18:32.797Z,2.85
2023-03-17T12:21:16.331Z,3.13
2023-03-17T12:23:56.381Z,3.10
2023-03-17T12:26:38.028Z,3.25
2023-03-17T12:29:13.568Z,2.80
2023-03-17T12:31:54.177Z,3.13
2023-03-17T12:34:39.315Z,3.60
2023-03-17T12:37:07.793Z,3.72
2023-03-17T12:39:37.177Z,3.50
2023-03-17T12:42:21.404Z,3.95
2023-03-17T12:44:56.331Z,4.30
2023-03-17T12:47:58.692Z,3.30
2023-03-17T12:51:09.026Z,3.60
2023-03-17T12:53:46.684Z,3.30
2023-03-17T12:56:46.510Z,3.13
2023-03-17T12:59:26.431Z,3.33
2023-03-17T13:01:57.683Z,3.90
2023-03-17T13:04:38.259Z,3.92
2023-03-17T13:07:18.220Z,3.72
2023-03-17T13:09:57.612Z,3.50
2023-03-17T13:12:43.506Z,3.72
2023-03-17T13:15:25.327Z,3.47
2023-03-17T13:18:10.661Z,3.85
2023-03-17T13:20:40.451Z,4.27
2023-03-17T13:23:09.864Z,4.05
2023-03-17T13:25:39.330Z,3.38
2023-03-17T13:28:17.394Z,3.10
2023-03-17T13:31:26.606Z,3.42
2023-03-17T13:33:56.776Z,5.32
2023-03-17T13:36:32.057Z,3.15
2023-03-17T13:39:39.158Z,3.00
2023-03-17T13:45:06.429Z,2.90
2023-03-17T13:47:35.158Z,2.80
2023-03-17T13:50:24.248Z,3.08
2023-03-17T13:53:17.367Z,3.33
2023-03-17T13:56:19.665Z,3.00
2023-03-17T13:59:09.637Z,2.80
2023-03-17T14:01:43.192Z,3.08
2023-03-17T14:04:18.578Z,2.90
2023-03-17T14:06:46.768Z,2.92
2023-03-17T14:09:36.735Z,3.90
2023-03-17T14:12:12.453Z,3.38
2023-03-17T14:17:30.679Z,2.95
2023-03-17T14:20:08.703Z,3.05
2023-03-17T14:22:45.574Z,2.83
2023-03-17T14:25:24.715Z,2.60
2023-03-17T14:28:02.526Z,2.80
2023-03-17T14:30:31.479Z,2.50
2023-03-17T14:33:31.251Z,2.65
2023-03-17T14:36:01.969Z,2.53
2023-03-17T14:38:32.818Z,2.40
2023-03-17T14:41:27.153Z,2.10
2023-03-17T14:44:00.310Z,1.92
2023-03-17T14:46:31.998Z,1.80
2023-03-17T14:49:03.148Z,1.80
2023-03-17T14:51:39.193Z,1.90
2023-03-17T14:54:18.420Z,1.95
2023-03-17T14:56:59.995Z,1.85
2023-03-17T14:59:49.083Z,1.90
2023-03-17T15:02:32.404Z,1.63
2023-03-17T15:05:04.424Z,1.50
2023-03-17T15:07:42.257Z,1.60
2023-03-17T15:10:16.593Z,1.52
2023-03-17T15:12:46.371Z,1.20
2023-03-17T15:15:28.398Z,1.60
2023-03-17T15:17:58.894Z,1.80
2023-03-17T15:20:25.895Z,1.58
2023-03-17T15:22:55.458Z,1.45
2023-03-17T15:25:38.206Z,1.60
2023-03-17T15:28:21.184Z,1.52
2023-03-17T15:30:54.196Z,1.77
2023-03-17T15:33:30.506Z,1.35
2023-03-17T15:35:57.252Z,1.40
2023-03-17T15:38:24.686Z,1.70
2023-03-17T15:40:51.204Z,1.70
2023-03-17T15:43:21.602Z,1.58
2023-03-17T15:45:54.335Z,1.40
2023-03-17T15:48:28.331Z,1.63
2023-03-17T15:50:56.876Z,1.33
2023-03-17T15:53:23.569Z,1.48
2023-03-17T15:55:51.914Z,1.55
2023-03-17T15:58:18.823Z,1.60
2023-03-17T16:00:51.454Z,1.60
2023-03-17T16:03:22.205Z,1.70
2023-03-17T16:05:48.732Z,2.00
2023-03-17T16:08:17.867Z,2.92
2023-03-17T16:10:45.593Z,2.28
2023-03-17T16:13:12.517Z,1.58
2023-03-17T16:15:41.683Z,1.60
2023-03-17T16:18:14.911Z,1.70
2023-03-17T16:20:43.869Z,1.50
2023-03-17T16:23:37.499Z,1.83
2023-03-17T16:26:15.044Z,1.55
2023-03-17T16:28:45.562Z,1.08
2023-03-17T16:31:24.977Z,1.25
2023-03-17T16:33:53.668Z,1.10
2023-03-17T16:36:23.397Z,1.23
2023-03-17T16:38:50.928Z,1.10
2023-03-17T16:41:29.059Z,1.50
2023-03-17T16:44:01.200Z,1.33
2023-03-17T16:46:35.177Z,1.52
2023-03-17T16:49:04.718Z,1.42
2023-03-17T16:51:31.482Z,1.02
2023-03-17T16:53:59.784Z,0.80
2023-03-17T16:56:27.657Z,0.98
2023-03-17T16:58:54.163Z,0.95
2023-03-17T17:01:24.918Z,0.80
2023-03-17T17:03:51.559Z,1.10
2023-03-17T17:06:19.702Z,1.25
2023-03-17T17:08:49.274Z,1.30
2023-03-17T17:11:17.537Z,1.20
2023-03-17T17:13:46.428Z,1.10
2023-03-17T17:16:25.607Z,1.13
2023-03-17T17:18:52.212Z,1.20
2023-03-17T17:21:18.691Z,1.08
2023-03-17T17:23:47.734Z,1.00
2023-03-17T17:26:14.600Z,1.17
2023-03-17T17:28:41.257Z,1.13
2023-03-17T17:31:17.783Z,1.38
2023-03-17T17:33:44.331Z,1.75
2023-03-17T17:36:16.220Z,2.00
2023-03-17T17:38:43.311Z,1.60
2023-03-17T17:41:11.749Z,1.85
2023-03-17T17:43:38.880Z,1.60
2023-03-17T17:46:11.766Z,2.50
2023-03-17T17:48:43.224Z,2.22
2023-03-17T17:51:09.862Z,2.65
2023-03-17T17:53:38.667Z,2.60
2023-03-17T17:56:05.571Z,1.98
2023-03-17T17:58:32.306Z,1.75
2023-03-17T18:01:08.618Z,1.50
2023-03-17T18:03:41.599Z,1.60
2023-03-17T18:06:10.258Z,1.63
2023-03-17T18:08:40.656Z,1.65
2023-03-17T18:11:07.584Z,1.80
2023-03-17T18:13:36.152Z,1.80
2023-03-17T18:16:06.117Z,2.05
2023-03-17T18:18:36.448Z,1.88
2023-03-17T18:21:03.039Z,2.33
2023-03-17T18:23:35.906Z,2.30
2023-03-17T18:26:04.516Z,3.03
2023-03-17T18:28:31.240Z,2.88
2023-03-17T18:31:11.346Z,4.43
2023-03-17T18:33:40.660Z,2.90
2023-03-17T18:36:08.879Z,2.70
2023-03-17T18:38:36.417Z,2.40
2023-03-17T18:41:04.481Z,2.67
2023-03-17T18:43:31.498Z,2.38
2023-03-17T18:45:58.354Z,2.10
2023-03-17T18:48:25.027Z,2.08
2023-03-17T18:50:51.759Z,2.08
2023-03-17T18:53:20.424Z,2.00
2023-03-17T18:55:47.306Z,1.80
2023-03-17T18:58:14.024Z,2.10
2023-03-17T19:00:41.603Z,2.25
2023-03-17T19:03:08.454Z,1.90
2023-03-17T19:05:39.640Z,1.80
2023-03-17T19:08:06.960Z,1.75
2023-03-17T19:10:34.269Z,2.00
2023-03-17T19:13:05.313Z,2.10
2023-03-17T19:15:34.075Z,2.03
2023-03-17T19:18:01.254Z,1.90
2023-03-17T19:20:28.191Z,1.77
2023-03-17T19:22:54.895Z,2.03
2023-03-17T19:25:22.091Z,1.90
2023-03-17T19:27:49.362Z,1.88
2023-03-17T19:30:16.413Z,1.77
2023-03-17T19:32:43.266Z,2.28
2023-03-17T19:35:09.919Z,2.05
2023-03-17T19:37:38.070Z,2.25
2023-03-17T19:40:08.178Z,1.95
2023-03-17T19:42:35.136Z,2.13
2023-03-17T19:45:06.252Z,2.35
2023-03-17T19:47:32.735Z,2.40
2023-03-17T19:49:59.295Z,2.22
2023-03-17T19:52:27.604Z,2.30
2023-03-17T19:54:54.121Z,2.13
2023-03-17T19:57:20.995Z,2.28
2023-03-17T19:59:47.840Z,2.33
2023-03-17T20:02:16.022Z,2.00
2023-03-17T20:04:43.063Z,2.47
2023-03-17T20:07:12.434Z,2.28
2023-03-17T20:09:44.572Z,3.15
2023-03-17T20:12:11.096Z,2.17
2023-03-17T20:14:39.323Z,2.90
2023-03-17T20:17:05.780Z,2.83
2023-03-17T20:19:32.627Z,2.33
2023-03-17T20:21:59.297Z,2.40
2023-03-17T20:24:29.172Z,2.25
2023-03-17T20:26:58.000Z,2.40
2023-03-17T20:29:24.609Z,2.05
2023-03-17T20:31:51.536Z,2.13
2023-03-17T20:34:18.044Z,2.10
2023-03-17T20:36:50.435Z,2.10
2023-03-17T20:39:19.964Z,2.13
2023-03-17T20:41:48.297Z,1.77
2023-03-17T20:44:15.840Z,1.92
2023-03-17T20:46:42.651Z,2.03
2023-03-17T20:49:09.849Z,1.95
2023-03-17T20:51:37.300Z,2.15
2023-03-17T20:54:04.361Z,1.85
2023-03-17T20:56:33.737Z,1.80
2023-03-17T20:59:06.940Z,1.85
2023-03-17T21:01:35.813Z,1.75
2023-03-17T21:04:05.791Z,2.05
2023-03-17T21:06:34.259Z,2.10
2023-03-17T21:09:01.538Z,1.80
2023-03-17T21:11:28.205Z,2.00
2023-03-17T21:13:57.222Z,1.65
2023-03-17T21:16:32.762Z,1.40
2023-03-17T21:19:00.234Z,1.75
2023-03-17T21:21:27.363Z,2.33
2023-03-17T21:23:54.764Z,2.25
2023-03-17T21:26:23.136Z,1.90
2023-03-17T21:28:52.590Z,2.10
2023-03-17T21:31:19.180Z,2.25
2023-03-17T21:33:50.713Z,2.42
2023-03-17T21:36:17.729Z,2.63
2023-03-17T21:38:44.207Z,2.58
2023-03-17T21:41:25.936Z,2.47
2023-03-17T21:43:52.439Z,2.60
2023-03-17T21:46:18.923Z,2.20
2023-03-17T21:48:47.285Z,2.20
2023-03-17T21:51:13.813Z,1.92
2023-03-17T21:53:42.338Z,2.10
2023-03-17T21:56:10.727Z,2.20
2023-03-17T21:58:38.520Z,2.15
2023-03-17T22:01:05.503Z,2.00
2023-03-17T22:03:36.313Z,2.10
2023-03-17T22:06:06.508Z,2.40
2023-03-17T22:08:33.317Z,2.38
2023-03-17T22:11:00.303Z,2.10
2023-03-17T22:13:27.203Z,2.58
2023-03-17T22:15:54.007Z,1.70
2023-03-17T22:18:20.691Z,2.20
2023-03-17T22:20:47.446Z,1.90
2023-03-17T22:23:14.274Z,2.00
2023-03-17T22:25:47.378Z,2.13
2023-03-17T22:28:13.929Z,2.05
2023-03-17T22:30:41.221Z,2.05
2023-03-17T22:33:08.316Z,2.00
2023-03-17T22:35:36.411Z,1.63
2023-03-17T22:38:03.007Z,1.80
2023-03-17T22:40:31.600Z,1.85
2023-03-17T22:42:59.196Z,2.25
2023-03-17T22:45:28.023Z,2.08
2023-03-17T22:47:56.380Z,2.10
2023-03-17T22:50:23.742Z,2.00
2023-03-17T22:52:52.180Z,2.03
2023-03-17T22:55:18.805Z,2.70
2023-03-17T22:57:45.687Z,2.58
2023-03-17T23:00:16.903Z,2.53
2023-03-17T23:02:47.338Z,2.67
2023-03-17T23:05:14.616Z,2.55
2023-03-17T23:07:50.357Z,2.45
2023-03-17T23:10:24.691Z,2.28
2023-03-17T23:12:51.692Z,1.77
2023-03-17T23:15:19.757Z,1.95
2023-03-17T23:17:47.705Z,1.90
2023-03-17T23:20:15.143Z,1.80
2023-03-17T23:22:41.743Z,2.20
2023-03-17T23:25:10.599Z,1.90
2023-03-17T23:27:39.666Z,1.60
2023-03-17T23:30:06.903Z,1.98
2023-03-17T23:32:40.150Z,2.00
2023-03-17T23:35:07.176Z,1.75
2023-03-17T23:37:33.649Z,1.63
2023-03-17T23:40:11.242Z,1.58
2023-03-17T23:42:38.059Z,1.50
2023-03-17T23:45:08.704Z,1.35
2023-03-17T23:47:41.465Z,1.42
2023-03-17T23:50:09.224Z,2.40
2023-03-17T23:52:36.357Z,2.03
2023-03-17T23:55:12.220Z,2.28
2023-03-17T23:57:39.219Z,2.42
